Terminal Aerodrome Forecast
Issued by NWS Detroit/Pontiac, MI

Home | Current Version | Previous Version | Text Only | Print | Product List | Glossary On
Versions: 1 2 3 4 5 6 7 8 9 10 11 12 13 14 15 16 17 18 19 20 21 22
000
FTUS43 KDTX 280300 AAA
TAFDTW
TAF AMD
KDTW 280300Z 2803/2906 26015G25KT P6SM SCT015 BKN060
      TEMPO 2803/2804 6SM -SHRA BKN015
     FM280400 27012G20KT P6SM OVC015
     FM281400 29008KT P6SM SCT020 BKN200
     FM290000 29005KT P6SM FEW020=

USA.gov is the U.S. government's official web portal to all federal, state and local government web resources and services.